createdAt,value
2023-01-05T00:01:42.699Z,100.00
2023-01-05T00:04:10.237Z,100.00
2023-01-05T00:06:37.728Z,100.00
2023-01-05T00:09:06.508Z,100.00
2023-01-05T00:11:51.983Z,100.00
2023-01-05T00:14:47.975Z,100.00
2023-01-05T00:17:41.209Z,100.00
2023-01-05T00:20:36.991Z,100.00
2023-01-05T00:23:04.936Z,100.00
2023-01-05T00:25:37.821Z,100.00
2023-01-05T00:28:05.414Z,100.00
2023-01-05T00:30:45.653Z,100.00
2023-01-05T00:33:15.716Z,100.00
2023-01-05T00:35:42.992Z,100.00
2023-01-05T00:38:10.223Z,100.00
2023-01-05T00:40:37.324Z,100.00
2023-01-05T00:43:04.643Z,100.00
2023-01-05T00:45:31.715Z,100.00
2023-01-05T00:47:58.629Z,100.00
2023-01-05T00:50:25.526Z,100.00
2023-01-05T00:52:52.603Z,100.00
2023-01-05T00:55:19.627Z,100.00
2023-01-05T00:57:46.603Z,100.00
2023-01-05T01:00:18.485Z,100.00
2023-01-05T01:02:45.483Z,100.00
2023-01-05T01:05:13.306Z,100.00
2023-01-05T01:07:40.380Z,100.00
2023-01-05T01:10:09.195Z,100.00
2023-01-05T01:12:36.111Z,100.00
2023-01-05T01:15:04.191Z,100.00
2023-01-05T01:17:32.465Z,100.00
2023-01-05T01:19:59.639Z,100.00
2023-01-05T01:22:26.606Z,100.00
2023-01-05T01:24:53.525Z,100.00
2023-01-05T01:27:20.465Z,100.00
2023-01-05T01:29:47.391Z,100.00
2023-01-05T01:32:14.302Z,100.00
2023-01-05T01:37:08.087Z,100.00
2023-01-05T01:39:35.288Z,100.00
2023-01-05T01:42:02.164Z,100.00
2023-01-05T01:44:48.740Z,100.00
2023-01-05T01:47:54.433Z,100.00
2023-01-05T01:50:29.286Z,100.00
2023-01-05T01:53:04.636Z,100.00
2023-01-05T01:55:32.706Z,100.00
2023-01-05T01:58:03.397Z,100.00
2023-01-05T02:00:30.308Z,100.00
2023-01-05T02:02:57.303Z,100.00
2023-01-05T02:05:32.039Z,100.00
2023-01-05T02:07:59.037Z,100.00
2023-01-05T02:10:58.144Z,100.00
2023-01-05T02:13:59.243Z,100.00
2023-01-05T02:17:05.885Z,100.00
2023-01-05T02:20:22.299Z,100.00
2023-01-05T02:23:38.372Z,100.00
2023-01-05T02:26:27.447Z,100.00
2023-01-05T02:29:10.559Z,100.00
2023-01-05T02:32:09.893Z,100.00
2023-01-05T02:34:54.121Z,100.00
2023-01-05T02:38:16.343Z,100.00
2023-01-05T02:40:49.291Z,100.00
2023-01-05T02:43:21.728Z,100.00
2023-01-05T02:45:49.591Z,100.00
2023-01-05T02:48:16.653Z,100.00
2023-01-05T02:51:01.097Z,100.00
2023-01-05T02:53:43.514Z,100.00
2023-01-05T02:56:17.466Z,100.00
2023-01-05T02:58:52.730Z,100.00
2023-01-05T03:01:39.895Z,100.00
2023-01-05T03:04:24.177Z,100.00
2023-01-05T03:07:00.091Z,100.00
2023-01-05T03:09:38.331Z,100.00
2023-01-05T03:12:48.530Z,100.00
2023-01-05T03:15:37.378Z,100.00
2023-01-05T03:18:16.046Z,100.00
2023-01-05T03:20:48.042Z,100.00
2023-01-05T03:23:37.092Z,100.00
2023-01-05T03:26:25.775Z,99.80
2023-01-05T03:29:16.962Z,99.69
2023-01-05T03:32:34.900Z,99.58
2023-01-05T03:35:31.694Z,99.50
2023-01-05T03:38:17.923Z,99.13
2023-01-05T03:40:46.353Z,99.19
2023-01-05T03:43:13.662Z,98.99
2023-01-05T03:45:54.694Z,98.86
2023-01-05T03:48:23.349Z,99.09
2023-01-05T03:50:50.483Z,98.65
2023-01-05T03:53:17.561Z,98.23
2023-01-05T03:55:44.504Z,97.92
2023-01-05T03:58:11.546Z,97.56
2023-01-05T04:00:38.585Z,97.17
2023-01-05T04:03:05.598Z,97.08
2023-01-05T04:05:32.591Z,97.20
2023-01-05T04:07:59.636Z,97.05
2023-01-05T04:10:26.667Z,97.13
2023-01-05T04:12:53.576Z,96.88
2023-01-05T04:15:20.550Z,96.74
2023-01-05T04:17:47.524Z,96.41
2023-01-05T04:20:14.524Z,96.32
2023-01-05T04:22:41.493Z,96.43
2023-01-05T04:25:08.854Z,96.44
2023-01-05T04:27:35.805Z,96.77
2023-01-05T04:30:02.992Z,96.67
2023-01-05T04:32:30.034Z,96.97
2023-01-05T04:34:56.966Z,97.07
2023-01-05T04:37:24.040Z,97.33
2023-01-05T04:39:50.942Z,97.09
2023-01-05T04:42:17.976Z,97.41
2023-01-05T04:44:44.915Z,97.39
2023-01-05T04:47:11.863Z,97.28
2023-01-05T04:49:38.753Z,97.39
2023-01-05T04:52:06.296Z,97.35
2023-01-05T04:54:33.228Z,97.42
2023-01-05T04:57:00.136Z,97.33
2023-01-05T04:59:27.058Z,97.38
2023-01-05T05:01:54.106Z,97.77
2023-01-05T05:04:21.108Z,98.35
2023-01-05T05:06:48.077Z,98.42
2023-01-05T05:09:14.957Z,98.75
2023-01-05T05:11:41.880Z,99.10
2023-01-05T05:14:08.839Z,99.46
2023-01-05T05:16:35.759Z,99.87
2023-01-05T05:19:02.682Z,100.00
2023-01-05T05:21:29.783Z,100.00
2023-01-05T05:24:06.427Z,100.00
2023-01-05T05:29:49.752Z,100.00
2023-01-05T05:32:26.229Z,100.00
2023-01-05T05:34:58.915Z,100.00
2023-01-05T05:37:33.285Z,100.00
2023-01-05T05:40:02.972Z,100.00
2023-01-05T05:42:42.270Z,100.00
2023-01-05T05:45:22.337Z,100.00
2023-01-05T05:48:04.545Z,100.00
2023-01-05T05:51:08.572Z,100.00
2023-01-05T05:54:00.389Z,100.00
2023-01-05T05:56:34.797Z,100.00
2023-01-05T05:59:06.348Z,100.00
2023-01-05T06:01:46.097Z,100.00
2023-01-05T06:04:17.501Z,100.00
2023-01-05T06:06:56.807Z,100.00
2023-01-05T06:09:34.846Z,100.00
2023-01-05T06:12:05.203Z,100.00
2023-01-05T06:14:44.325Z,100.00
2023-01-05T06:17:16.000Z,100.00
2023-01-05T06:19:56.923Z,100.00
2023-01-05T06:22:33.059Z,100.00
2023-01-05T06:25:00.993Z,100.00
2023-01-05T06:27:30.915Z,100.00
2023-01-05T06:30:04.869Z,100.00
2023-01-05T06:32:44.488Z,100.00
2023-01-05T06:35:12.826Z,100.00
2023-01-05T06:37:57.890Z,100.00
2023-01-05T06:40:29.078Z,100.00
2023-01-05T06:43:18.245Z,100.00
2023-01-05T06:48:46.810Z,100.00
2023-01-05T06:51:28.849Z,100.00
2023-01-05T06:54:02.634Z,100.00
2023-01-05T06:56:52.908Z,100.00
2023-01-05T06:59:38.173Z,100.00
2023-01-05T07:02:30.369Z,100.00
2023-01-05T07:05:08.239Z,100.00
2023-01-05T07:07:47.063Z,100.00
2023-01-05T07:10:32.537Z,100.00
2023-01-05T07:13:20.580Z,100.00
2023-01-05T07:15:50.580Z,100.00
2023-01-05T07:18:22.050Z,100.00
2023-01-05T07:21:04.435Z,100.00
2023-01-05T07:24:30.288Z,100.00
2023-01-05T07:27:21.239Z,100.00
2023-01-05T07:29:52.465Z,100.00
2023-01-05T07:32:25.841Z,100.00
2023-01-05T07:34:56.908Z,100.00
2023-01-05T07:37:33.030Z,100.00
2023-01-05T07:40:15.937Z,100.00
2023-01-05T07:42:56.082Z,100.00
2023-01-05T07:46:15.357Z,99.96
2023-01-05T07:49:14.015Z,100.00
2023-01-05T07:51:50.887Z,99.88
2023-01-05T07:58:00.217Z,99.59
2023-01-05T08:00:51.450Z,99.11
2023-01-05T08:03:34.409Z,98.73
2023-01-05T08:06:20.042Z,98.45
2023-01-05T08:09:29.403Z,98.15
2023-01-05T08:12:11.324Z,98.50
2023-01-05T08:14:50.353Z,98.61
2023-01-05T08:17:26.665Z,98.62
2023-01-05T08:20:03.641Z,99.00
2023-01-05T08:22:41.137Z,98.61
2023-01-05T08:25:51.996Z,98.52
2023-01-05T08:28:42.474Z,98.14
2023-01-05T08:34:12.809Z,97.89
2023-01-05T08:37:15.856Z,97.38
2023-01-05T08:40:16.596Z,96.69
2023-01-05T08:43:19.411Z,94.69
2023-01-05T08:46:30.698Z,93.23
2023-01-05T08:49:32.549Z,92.80
2023-01-05T08:53:04.933Z,92.67
2023-01-05T08:55:54.493Z,92.60
2023-01-05T08:59:07.405Z,91.99
2023-01-05T09:02:02.513Z,91.79
2023-01-05T09:05:34.613Z,90.90
2023-01-05T09:08:40.683Z,89.72
2023-01-05T09:16:11.098Z,83.32
2023-01-05T09:19:21.178Z,81.02
2023-01-05T09:22:30.011Z,79.73
2023-01-05T09:33:17.027Z,75.72
2023-01-05T09:36:19.182Z,75.13
2023-01-05T09:39:28.585Z,73.25
2023-01-05T09:42:21.131Z,72.64
2023-01-05T09:59:05.872Z,74.26
2023-01-05T10:02:41.256Z,75.16
2023-01-05T10:06:43.853Z,75.61
2023-01-05T10:13:15.715Z,76.06
2023-01-05T10:28:01.000Z,75.84
2023-01-05T10:39:44.463Z,75.54
2023-01-05T10:47:59.899Z,75.60
2023-01-05T10:51:26.673Z,75.68
2023-01-05T10:55:34.274Z,75.67
2023-01-05T11:02:25.342Z,75.21
2023-01-05T11:08:57.400Z,75.01
2023-01-05T12:38:11.551Z,76.70
2023-01-05T12:45:10.005Z,76.84
2023-01-05T12:48:21.331Z,76.85
2023-01-05T12:55:51.053Z,75.97
2023-01-05T12:59:05.448Z,76.26
2023-01-05T13:06:34.526Z,75.93
2023-01-05T13:09:26.574Z,76.09
2023-01-05T13:12:17.233Z,76.22
2023-01-05T13:15:20.749Z,75.74
2023-01-05T13:17:54.803Z,76.10
2023-01-05T13:21:12.736Z,75.98
2023-01-05T13:27:58.567Z,75.57
2023-01-05T13:31:09.760Z,74.80
2023-01-05T13:34:02.438Z,74.57
2023-01-05T13:37:32.038Z,74.49
2023-01-05T13:41:04.071Z,74.15
2023-01-05T13:44:20.355Z,74.30
2023-01-05T13:51:06.989Z,74.97
2023-01-05T13:56:47.388Z,75.53
2023-01-05T14:00:07.675Z,75.65
2023-01-05T14:03:42.628Z,75.58
2023-01-05T14:06:54.482Z,75.57
2023-01-05T14:10:44.759Z,75.86
2023-01-05T14:14:37.984Z,75.90
2023-01-05T14:18:03.131Z,76.00
2023-01-05T14:20:48.473Z,76.03
2023-01-05T14:23:35.891Z,76.20
2023-01-05T14:27:08.412Z,76.21
2023-01-05T14:30:41.706Z,76.47
2023-01-05T14:45:27.711Z,77.62
2023-01-05T14:47:44.603Z,77.65
2023-01-05T14:51:52.589Z,78.13
2023-01-05T14:55:51.270Z,77.86
2023-01-05T14:58:59.691Z,78.07
2023-01-05T15:02:34.242Z,77.91
2023-01-05T15:09:16.653Z,78.43
2023-01-05T15:12:31.117Z,78.52
2023-01-05T15:15:58.165Z,78.59
2023-01-05T15:19:07.037Z,78.94
2023-01-05T15:22:36.259Z,78.99
2023-01-05T15:25:09.097Z,79.23
2023-01-05T15:28:56.061Z,79.46
2023-01-05T15:36:50.132Z,79.60
2023-01-05T15:44:19.984Z,79.55
2023-01-05T15:51:24.638Z,79.49
2023-01-05T15:54:39.713Z,79.51
2023-01-05T15:57:59.308Z,79.82
2023-01-05T16:05:42.905Z,79.50
2023-01-05T16:08:54.695Z,79.58
2023-01-05T16:11:40.487Z,79.98
2023-01-05T16:14:53.516Z,79.99
2023-01-05T16:21:35.339Z,80.34
2023-01-05T16:24:34.942Z,80.62
2023-01-05T16:27:17.253Z,80.22
2023-01-05T16:30:04.318Z,80.24
2023-01-05T16:32:40.433Z,80.17
2023-01-05T16:36:06.771Z,80.03
2023-01-05T16:43:30.677Z,80.23
2023-01-05T16:50:35.619Z,80.36
2023-01-05T16:50:58.969Z,80.21
2023-01-05T16:54:08.637Z,80.43
2023-01-05T16:57:42.038Z,80.72
2023-01-05T17:00:55.892Z,80.50
2023-01-05T17:04:00.240Z,80.73
2023-01-05T17:07:21.032Z,80.82
2023-01-05T17:13:26.795Z,80.75
2023-01-05T17:16:21.700Z,80.59
2023-01-05T17:19:00.723Z,81.10
2023-01-05T17:24:34.670Z,81.17
2023-01-05T17:37:20.141Z,80.99
2023-01-05T17:41:05.386Z,81.34
2023-01-05T17:43:48.927Z,81.33
2023-01-05T17:46:55.705Z,81.27
2023-01-05T17:50:10.870Z,81.38
2023-01-05T17:53:44.285Z,81.37
2023-01-05T18:04:05.020Z,82.04
2023-01-05T18:22:47.609Z,81.93
2023-01-05T18:41:45.648Z,82.61
2023-01-05T18:44:28.728Z,82.55
2023-01-05T18:59:16.644Z,83.16
2023-01-05T19:02:41.706Z,83.28
2023-01-05T19:21:16.768Z,83.07
2023-01-05T19:24:30.824Z,82.98
2023-01-05T19:27:34.501Z,82.78
2023-01-05T19:33:49.387Z,83.20
2023-01-05T19:44:10.621Z,83.36
2023-01-05T19:47:17.111Z,83.39
2023-01-05T19:50:34.966Z,83.35
2023-01-05T19:53:19.732Z,82.85
2023-01-05T20:00:45.846Z,83.06
2023-01-05T20:03:00.855Z,83.23
2023-01-05T20:03:44.917Z,83.21
2023-01-05T20:09:39.813Z,83.08
2023-01-05T20:15:50.927Z,83.28
2023-01-05T20:19:06.490Z,83.33
2023-01-05T20:22:01.529Z,83.44
2023-01-05T20:25:03.173Z,83.88
2023-01-05T20:28:08.879Z,83.70
2023-01-05T20:32:09.451Z,83.96
2023-01-05T20:35:38.317Z,83.77
2023-01-05T20:49:14.662Z,83.56
2023-01-05T20:52:17.960Z,83.65
2023-01-05T20:55:02.107Z,83.72
2023-01-05T20:57:48.657Z,83.24
2023-01-05T21:05:12.154Z,83.20
2023-01-05T21:08:49.665Z,83.59
2023-01-05T21:11:30.927Z,83.45
2023-01-05T21:14:12.989Z,83.71
2023-01-05T21:24:18.850Z,83.69
2023-01-05T21:27:21.617Z,84.05
2023-01-05T21:30:01.025Z,84.12
2023-01-05T21:33:14.767Z,84.37
2023-01-05T21:40:06.616Z,84.76
2023-01-05T21:43:23.558Z,84.79
2023-01-05T21:49:59.712Z,85.02
2023-01-05T21:51:13.194Z,84.85
2023-01-05T21:52:48.347Z,84.81
2023-01-05T21:55:45.671Z,84.88
2023-01-05T21:58:25.550Z,85.20
2023-01-05T22:04:13.133Z,85.14
2023-01-05T22:07:09.202Z,85.20
2023-01-05T22:09:57.156Z,85.22
2023-01-05T22:16:00.145Z,85.04
2023-01-05T22:19:59.327Z,84.99
2023-01-05T22:22:43.201Z,85.11
2023-01-05T22:25:33.999Z,85.03
2023-01-05T22:28:30.251Z,84.91
2023-01-05T22:31:44.929Z,84.92
2023-01-05T22:39:36.260Z,85.68
2023-01-05T22:47:37.625Z,85.76
2023-01-05T22:51:00.135Z,86.13
2023-01-05T22:54:18.199Z,86.04
2023-01-05T23:04:22.526Z,86.36
2023-01-05T23:14:50.335Z,86.67
2023-01-05T23:17:34.547Z,87.05
2023-01-05T23:20:53.749Z,87.07
2023-01-05T23:23:55.433Z,87.46
2023-01-05T23:26:34.548Z,87.38
2023-01-05T23:29:22.091Z,87.35
2023-01-05T23:36:04.108Z,87.71
2023-01-05T23:36:24.167Z,87.44
2023-01-05T23:38:56.959Z,87.95
2023-01-05T23:41:35.829Z,88.01
2023-01-05T23:44:33.352Z,88.06
2023-01-05T23:47:16.257Z,88.16
2023-01-05T23:50:06.349Z,87.95
2023-01-05T23:56:15.091Z,88.03
2023-01-05T23:59:26.788Z,87.99
